sensor_id;sensor_type;location;lat;lon;timestamp;P1;durP1;ratioP1;P2;durP2;ratioP2
41532;SDS011;27262;-35.248;149.138;2023-07-20T00:01:52;3.17;;;0.90;;
41532;SDS011;27262;-35.248;149.138;2023-07-20T00:04:23;1.37;;;0.90;;
41532;SDS011;27262;-35.248;149.138;2023-07-20T00:06:54;2.70;;;1.00;;
41532;SDS011;27262;-35.248;149.138;2023-07-20T00:09:24;1.75;;;0.88;;
41532;SDS011;27262;-35.248;149.138;2023-07-20T00:11:55;1.60;;;0.90;;
41532;SDS011;27262;-35.248;149.138;2023-07-20T00:14:26;1.80;;;0.80;;
41532;SDS011;27262;-35.248;149.138;2023-07-20T00:16:57;1.50;;;0.97;;
41532;SDS011;27262;-35.248;149.138;2023-07-20T00:19:28;1.30;;;0.93;;
41532;SDS011;27262;-35.248;149.138;2023-07-20T00:22:00;2.60;;;1.20;;
41532;SDS011;27262;-35.248;149.138;2023-07-20T00:24:33;2.20;;;0.70;;
41532;SDS011;27262;-35.248;149.138;2023-07-20T00:27:03;1.67;;;0.90;;
41532;SDS011;27262;-35.248;149.138;2023-07-20T00:29:34;1.07;;;0.90;;
41532;SDS011;27262;-35.248;149.138;2023-07-20T00:32:05;1.37;;;0.97;;
41532;SDS011;27262;-35.248;149.138;2023-07-20T00:34:36;1.10;;;0.80;;
41532;SDS011;27262;-35.248;149.138;2023-07-20T00:37:06;2.93;;;0.93;;
41532;SDS011;27262;-35.248;149.138;2023-07-20T00:39:36;2.47;;;0.80;;
41532;SDS011;27262;-35.248;149.138;2023-07-20T00:42:07;2.30;;;1.17;;
41532;SDS011;27262;-35.248;149.138;2023-07-20T00:44:37;1.43;;;0.70;;
41532;SDS011;27262;-35.248;149.138;2023-07-20T00:47:07;1.73;;;0.90;;
41532;SDS011;27262;-35.248;149.138;2023-07-20T00:49:39;1.23;;;0.70;;
41532;SDS011;27262;-35.248;149.138;2023-07-20T00:52:10;1.30;;;0.90;;
41532;SDS011;27262;-35.248;149.138;2023-07-20T00:54:43;1.70;;;0.93;;
41532;SDS011;27262;-35.248;149.138;2023-07-20T00:57:14;1.03;;;0.80;;
41532;SDS011;27262;-35.248;149.138;2023-07-20T00:59:44;2.90;;;1.00;;
41532;SDS011;27262;-35.248;149.138;2023-07-20T01:02:15;1.43;;;0.80;;
41532;SDS011;27262;-35.248;149.138;2023-07-20T01:04:45;1.70;;;0.90;;
41532;SDS011;27262;-35.248;149.138;2023-07-20T01:10:29;1.67;;;0.90;;
41532;SDS011;27262;-35.248;149.138;2023-07-20T01:13:09;2.00;;;1.10;;
41532;SDS011;27262;-35.248;149.138;2023-07-20T01:15:41;1.47;;;1.00;;
41532;SDS011;27262;-35.248;149.138;2023-07-20T01:18:17;1.40;;;0.93;;
41532;SDS011;27262;-35.248;149.138;2023-07-20T01:20:48;2.00;;;0.60;;
41532;SDS011;27262;-35.248;149.138;2023-07-20T01:23:25;1.90;;;0.70;;
41532;SDS011;27262;-35.248;149.138;2023-07-20T01:32:23;1.77;;;0.70;;
41532;SDS011;27262;-35.248;149.138;2023-07-20T01:34:54;2.00;;;1.20;;
41532;SDS011;27262;-35.248;149.138;2023-07-20T01:37:27;1.47;;;0.70;;
41532;SDS011;27262;-35.248;149.138;2023-07-20T01:39:59;1.70;;;0.80;;
41532;SDS011;27262;-35.248;149.138;2023-07-20T01:42:30;1.23;;;0.83;;
41532;SDS011;27262;-35.248;149.138;2023-07-20T01:45:01;1.70;;;0.97;;
41532;SDS011;27262;-35.248;149.138;2023-07-20T01:47:32;1.80;;;0.80;;
41532;SDS011;27262;-35.248;149.138;2023-07-20T01:50:03;1.10;;;0.60;;
41532;SDS011;27262;-35.248;149.138;2023-07-20T01:52:34;1.40;;;0.70;;
41532;SDS011;27262;-35.248;149.138;2023-07-20T01:55:05;2.20;;;0.80;;
41532;SDS011;27262;-35.248;149.138;2023-07-20T01:57:36;0.67;;;0.60;;
41532;SDS011;27262;-35.248;149.138;2023-07-20T02:00:07;2.67;;;0.80;;
41532;SDS011;27262;-35.248;149.138;2023-07-20T02:02:38;1.63;;;0.60;;
41532;SDS011;27262;-35.248;149.138;2023-07-20T02:05:11;1.53;;;0.70;;
41532;SDS011;27262;-35.248;149.138;2023-07-20T02:07:42;1.37;;;1.00;;
41532;SDS011;27262;-35.248;149.138;2023-07-20T02:10:12;0.83;;;0.63;;
41532;SDS011;27262;-35.248;149.138;2023-07-20T02:12:43;1.10;;;0.80;;
41532;SDS011;27262;-35.248;149.138;2023-07-20T02:15:14;1.93;;;0.83;;
41532;SDS011;27262;-35.248;149.138;2023-07-20T02:17:48;1.47;;;0.70;;
41532;SDS011;27262;-35.248;149.138;2023-07-20T02:20:18;0.73;;;0.50;;
41532;SDS011;27262;-35.248;149.138;2023-07-20T02:22:50;0.80;;;0.63;;
41532;SDS011;27262;-35.248;149.138;2023-07-20T02:25:20;0.93;;;0.70;;
41532;SDS011;27262;-35.248;149.138;2023-07-20T02:27:50;0.60;;;0.60;;
41532;SDS011;27262;-35.248;149.138;2023-07-20T02:30:21;0.63;;;0.60;;
41532;SDS011;27262;-35.248;149.138;2023-07-20T02:32:51;0.90;;;0.60;;
41532;SDS011;27262;-35.248;149.138;2023-07-20T02:35:22;1.17;;;0.70;;
41532;SDS011;27262;-35.248;149.138;2023-07-20T02:37:53;0.70;;;0.60;;
41532;SDS011;27262;-35.248;149.138;2023-07-20T02:40:23;2.07;;;0.53;;
41532;SDS011;27262;-35.248;149.138;2023-07-20T02:42:53;0.80;;;0.70;;
41532;SDS011;27262;-35.248;149.138;2023-07-20T02:45:24;0.97;;;0.57;;
41532;SDS011;27262;-35.248;149.138;2023-07-20T02:47:54;1.23;;;0.60;;
41532;SDS011;27262;-35.248;149.138;2023-07-20T02:50:25;1.23;;;0.80;;
41532;SDS011;27262;-35.248;149.138;2023-07-20T02:52:55;0.70;;;0.60;;
41532;SDS011;27262;-35.248;149.138;2023-07-20T02:55:26;1.27;;;0.70;;
41532;SDS011;27262;-35.248;149.138;2023-07-20T02:57:56;0.70;;;0.60;;
41532;SDS011;27262;-35.248;149.138;2023-07-20T03:00:26;0.93;;;0.60;;
41532;SDS011;27262;-35.248;149.138;2023-07-20T03:02:57;2.00;;;0.50;;
41532;SDS011;27262;-35.248;149.138;2023-07-20T03:05:27;0.90;;;0.77;;
41532;SDS011;27262;-35.248;149.138;2023-07-20T03:07:58;0.60;;;0.60;;
41532;SDS011;27262;-35.248;149.138;2023-07-20T03:10:38;0.67;;;0.53;;
41532;SDS011;27262;-35.248;149.138;2023-07-20T03:13:09;1.63;;;0.80;;
41532;SDS011;27262;-35.248;149.138;2023-07-20T03:15:39;0.87;;;0.60;;
41532;SDS011;27262;-35.248;149.138;2023-07-20T03:18:10;0.77;;;0.67;;
41532;SDS011;27262;-35.248;149.138;2023-07-20T03:20:40;1.03;;;0.60;;
41532;SDS011;27262;-35.248;149.138;2023-07-20T03:23:11;0.70;;;0.60;;
41532;SDS011;27262;-35.248;149.138;2023-07-20T03:25:42;1.10;;;0.60;;
41532;SDS011;27262;-35.248;149.138;2023-07-20T03:28:12;0.80;;;0.57;;
41532;SDS011;27262;-35.248;149.138;2023-07-20T03:30:44;0.63;;;0.50;;
41532;SDS011;27262;-35.248;149.138;2023-07-20T03:33:15;0.53;;;0.40;;
41532;SDS011;27262;-35.248;149.138;2023-07-20T03:35:45;0.60;;;0.50;;
41532;SDS011;27262;-35.248;149.138;2023-07-20T03:38:15;0.70;;;0.60;;
41532;SDS011;27262;-35.248;149.138;2023-07-20T03:40:58;0.90;;;0.50;;
41532;SDS011;27262;-35.248;149.138;2023-07-20T03:43:29;1.53;;;0.70;;
41532;SDS011;27262;-35.248;149.138;2023-07-20T03:45:59;0.63;;;0.40;;
41532;SDS011;27262;-35.248;149.138;2023-07-20T03:48:35;0.53;;;0.40;;
41532;SDS011;27262;-35.248;149.138;2023-07-20T03:51:05;0.60;;;0.50;;
41532;SDS011;27262;-35.248;149.138;2023-07-20T03:53:36;0.63;;;0.50;;
41532;SDS011;27262;-35.248;149.138;2023-07-20T03:56:07;1.20;;;0.80;;
41532;SDS011;27262;-35.248;149.138;2023-07-20T03:58:37;0.50;;;0.50;;
41532;SDS011;27262;-35.248;149.138;2023-07-20T04:01:08;1.63;;;0.70;;
41532;SDS011;27262;-35.248;149.138;2023-07-20T04:03:38;0.73;;;0.60;;
41532;SDS011;27262;-35.248;149.138;2023-07-20T04:06:08;0.50;;;0.50;;
41532;SDS011;27262;-35.248;149.138;2023-07-20T04:08:39;0.73;;;0.50;;
41532;SDS011;27262;-35.248;149.138;2023-07-20T04:11:09;0.70;;;0.50;;
41532;SDS011;27262;-35.248;149.138;2023-07-20T04:13:39;0.60;;;0.60;;
41532;SDS011;27262;-35.248;149.138;2023-07-20T04:16:10;0.67;;;0.40;;
41532;SDS011;27262;-35.248;149.138;2023-07-20T04:18:40;2.50;;;0.57;;
41532;SDS011;27262;-35.248;149.138;2023-07-20T04:21:10;1.23;;;0.57;;
41532;SDS011;27262;-35.248;149.138;2023-07-20T04:23:41;0.73;;;0.50;;
41532;SDS011;27262;-35.248;149.138;2023-07-20T04:26:11;0.73;;;0.60;;
41532;SDS011;27262;-35.248;149.138;2023-07-20T04:28:43;0.60;;;0.60;;
41532;SDS011;27262;-35.248;149.138;2023-07-20T04:31:14;0.83;;;0.70;;
41532;SDS011;27262;-35.248;149.138;2023-07-20T04:33:45;0.80;;;0.50;;
41532;SDS011;27262;-35.248;149.138;2023-07-20T04:36:16;0.80;;;0.40;;
41532;SDS011;27262;-35.248;149.138;2023-07-20T04:38:48;0.60;;;0.40;;
41532;SDS011;27262;-35.248;149.138;2023-07-20T04:41:18;0.70;;;0.60;;
41532;SDS011;27262;-35.248;149.138;2023-07-20T04:43:49;0.80;;;0.50;;
41532;SDS011;27262;-35.248;149.138;2023-07-20T04:46:19;1.00;;;0.80;;
41532;SDS011;27262;-35.248;149.138;2023-07-20T04:48:50;0.63;;;0.50;;
41532;SDS011;27262;-35.248;149.138;2023-07-20T04:51:21;0.90;;;0.50;;
41532;SDS011;27262;-35.248;149.138;2023-07-20T04:53:51;0.63;;;0.50;;
41532;SDS011;27262;-35.248;149.138;2023-07-20T04:56:21;0.57;;;0.50;;
41532;SDS011;27262;-35.248;149.138;2023-07-20T04:58:52;1.00;;;0.50;;
41532;SDS011;27262;-35.248;149.138;2023-07-20T05:01:23;0.60;;;0.50;;
41532;SDS011;27262;-35.248;149.138;2023-07-20T05:03:55;0.80;;;0.60;;
41532;SDS011;27262;-35.248;149.138;2023-07-20T05:06:25;1.27;;;0.40;;
41532;SDS011;27262;-35.248;149.138;2023-07-20T05:08:55;0.60;;;0.50;;
41532;SDS011;27262;-35.248;149.138;2023-07-20T05:11:26;0.97;;;0.50;;
41532;SDS011;27262;-35.248;149.138;2023-07-20T05:13:56;0.57;;;0.40;;
41532;SDS011;27262;-35.248;149.138;2023-07-20T05:16:27;0.43;;;0.43;;
41532;SDS011;27262;-35.248;149.138;2023-07-20T05:18:57;1.43;;;0.50;;
41532;SDS011;27262;-35.248;149.138;2023-07-20T05:21:27;0.90;;;0.60;;
41532;SDS011;27262;-35.248;149.138;2023-07-20T05:23:58;0.63;;;0.63;;
41532;SDS011;27262;-35.248;149.138;2023-07-20T05:26:28;0.70;;;0.50;;
41532;SDS011;27262;-35.248;149.138;2023-07-20T05:28:58;0.53;;;0.40;;
41532;SDS011;27262;-35.248;149.138;2023-07-20T05:31:29;0.50;;;0.50;;
41532;SDS011;27262;-35.248;149.138;2023-07-20T05:34:00;0.50;;;0.50;;
41532;SDS011;27262;-35.248;149.138;2023-07-20T05:36:30;0.67;;;0.50;;
41532;SDS011;27262;-35.248;149.138;2023-07-20T05:39:01;0.70;;;0.53;;
41532;SDS011;27262;-35.248;149.138;2023-07-20T05:41:50;1.20;;;0.60;;
41532;SDS011;27262;-35.248;149.138;2023-07-20T05:44:29;0.60;;;0.57;;
41532;SDS011;27262;-35.248;149.138;2023-07-20T05:47:00;0.67;;;0.40;;
41532;SDS011;27262;-35.248;149.138;2023-07-20T05:49:31;1.57;;;0.63;;
41532;SDS011;27262;-35.248;149.138;2023-07-20T05:52:02;0.50;;;0.30;;
41532;SDS011;27262;-35.248;149.138;2023-07-20T05:54:32;0.50;;;0.40;;
41532;SDS011;27262;-35.248;149.138;2023-07-20T05:57:03;0.53;;;0.30;;
41532;SDS011;27262;-35.248;149.138;2023-07-20T05:59:33;0.83;;;0.43;;
41532;SDS011;27262;-35.248;149.138;2023-07-20T06:02:04;0.50;;;0.50;;
41532;SDS011;27262;-35.248;149.138;2023-07-20T06:04:36;0.40;;;0.40;;
41532;SDS011;27262;-35.248;149.138;2023-07-20T06:07:08;0.50;;;0.43;;
41532;SDS011;27262;-35.248;149.138;2023-07-20T06:09:39;0.60;;;0.50;;
41532;SDS011;27262;-35.248;149.138;2023-07-20T06:12:09;0.67;;;0.40;;
41532;SDS011;27262;-35.248;149.138;2023-07-20T06:14:40;0.70;;;0.40;;
41532;SDS011;27262;-35.248;149.138;2023-07-20T06:17:10;0.87;;;0.50;;
41532;SDS011;27262;-35.248;149.138;2023-07-20T06:19:40;0.97;;;0.50;;
41532;SDS011;27262;-35.248;149.138;2023-07-20T06:22:11;0.60;;;0.40;;
41532;SDS011;27262;-35.248;149.138;2023-07-20T06:24:41;0.40;;;0.40;;
41532;SDS011;27262;-35.248;149.138;2023-07-20T06:27:11;1.30;;;0.70;;
41532;SDS011;27262;-35.248;149.138;2023-07-20T06:29:42;0.60;;;0.40;;
41532;SDS011;27262;-35.248;149.138;2023-07-20T06:32:12;0.47;;;0.40;;
41532;SDS011;27262;-35.248;149.138;2023-07-20T06:34:43;0.90;;;0.40;;
41532;SDS011;27262;-35.248;149.138;2023-07-20T06:37:13;1.30;;;0.53;;
41532;SDS011;27262;-35.248;149.138;2023-07-20T06:39:44;0.67;;;0.40;;
41532;SDS011;27262;-35.248;149.138;2023-07-20T06:42:17;0.63;;;0.50;;
41532;SDS011;27262;-35.248;149.138;2023-07-20T06:44:47;0.50;;;0.50;;
41532;SDS011;27262;-35.248;149.138;2023-07-20T06:47:18;1.20;;;0.40;;
41532;SDS011;27262;-35.248;149.138;2023-07-20T06:49:48;1.97;;;0.40;;
41532;SDS011;27262;-35.248;149.138;2023-07-20T06:52:18;2.13;;;0.50;;
41532;SDS011;27262;-35.248;149.138;2023-07-20T06:54:49;1.30;;;0.40;;
41532;SDS011;27262;-35.248;149.138;2023-07-20T06:57:19;0.73;;;0.47;;
41532;SDS011;27262;-35.248;149.138;2023-07-20T06:59:49;2.37;;;0.50;;
41532;SDS011;27262;-35.248;149.138;2023-07-20T07:02:20;1.73;;;0.50;;
41532;SDS011;27262;-35.248;149.138;2023-07-20T07:04:50;1.87;;;0.50;;
41532;SDS011;27262;-35.248;149.138;2023-07-20T07:07:24;2.10;;;0.50;;
41532;SDS011;27262;-35.248;149.138;2023-07-20T07:09:55;2.53;;;0.50;;
41532;SDS011;27262;-35.248;149.138;2023-07-20T07:12:25;0.63;;;0.37;;
41532;SDS011;27262;-35.248;149.138;2023-07-20T07:14:56;2.50;;;0.60;;
41532;SDS011;27262;-35.248;149.138;2023-07-20T07:17:27;1.37;;;0.50;;
41532;SDS011;27262;-35.248;149.138;2023-07-20T07:20:00;0.73;;;0.40;;
41532;SDS011;27262;-35.248;149.138;2023-07-20T07:22:35;0.40;;;0.40;;
41532;SDS011;27262;-35.248;149.138;2023-07-20T07:25:05;1.00;;;0.47;;
41532;SDS011;27262;-35.248;149.138;2023-07-20T07:27:36;0.60;;;0.50;;
41532;SDS011;27262;-35.248;149.138;2023-07-20T07:30:07;2.73;;;0.60;;
41532;SDS011;27262;-35.248;149.138;2023-07-20T07:32:37;1.48;;;0.70;;
41532;SDS011;27262;-35.248;149.138;2023-07-20T07:35:08;0.80;;;0.50;;
41532;SDS011;27262;-35.248;149.138;2023-07-20T07:37:38;0.80;;;0.50;;
41532;SDS011;27262;-35.248;149.138;2023-07-20T07:40:28;1.75;;;0.55;;
41532;SDS011;27262;-35.248;149.138;2023-07-20T07:42:59;2.57;;;0.57;;
41532;SDS011;27262;-35.248;149.138;2023-07-20T07:45:30;0.67;;;0.40;;
41532;SDS011;27262;-35.248;149.138;2023-07-20T07:48:04;0.40;;;0.40;;
41532;SDS011;27262;-35.248;149.138;2023-07-20T07:50:35;1.00;;;0.65;;
41532;SDS011;27262;-35.248;149.138;2023-07-20T07:53:07;0.80;;;0.60;;
41532;SDS011;27262;-35.248;149.138;2023-07-20T07:55:38;1.63;;;0.60;;
41532;SDS011;27262;-35.248;149.138;2023-07-20T07:58:09;0.80;;;0.53;;
41532;SDS011;27262;-35.248;149.138;2023-07-20T08:00:42;0.50;;;0.40;;
41532;SDS011;27262;-35.248;149.138;2023-07-20T08:03:13;0.40;;;0.30;;
41532;SDS011;27262;-35.248;149.138;2023-07-20T08:05:43;0.45;;;0.45;;
41532;SDS011;27262;-35.248;149.138;2023-07-20T08:08:14;2.37;;;0.50;;
41532;SDS011;27262;-35.248;149.138;2023-07-20T08:10:52;1.00;;;0.30;;
41532;SDS011;27262;-35.248;149.138;2023-07-20T08:13:23;0.90;;;0.60;;
41532;SDS011;27262;-35.248;149.138;2023-07-20T08:15:54;0.40;;;0.40;;
41532;SDS011;27262;-35.248;149.138;2023-07-20T08:18:24;2.40;;;0.60;;
41532;SDS011;27262;-35.248;149.138;2023-07-20T08:20:55;1.33;;;0.40;;
41532;SDS011;27262;-35.248;149.138;2023-07-20T08:23:25;0.50;;;0.43;;
41532;SDS011;27262;-35.248;149.138;2023-07-20T08:25:56;0.67;;;0.40;;
41532;SDS011;27262;-35.248;149.138;2023-07-20T08:28:26;0.60;;;0.47;;
41532;SDS011;27262;-35.248;149.138;2023-07-20T08:30:57;1.27;;;0.40;;
41532;SDS011;27262;-35.248;149.138;2023-07-20T08:33:28;2.97;;;0.50;;
41532;SDS011;27262;-35.248;149.138;2023-07-20T08:36:02;1.43;;;0.30;;
41532;SDS011;27262;-35.248;149.138;2023-07-20T08:38:33;0.45;;;0.30;;
41532;SDS011;27262;-35.248;149.138;2023-07-20T08:41:03;0.63;;;0.40;;
41532;SDS011;27262;-35.248;149.138;2023-07-20T08:43:33;2.57;;;0.40;;
41532;SDS011;27262;-35.248;149.138;2023-07-20T08:46:06;2.87;;;0.40;;
41532;SDS011;27262;-35.248;149.138;2023-07-20T08:48:37;1.23;;;0.40;;
41532;SDS011;27262;-35.248;149.138;2023-07-20T08:51:09;1.23;;;0.83;;
41532;SDS011;27262;-35.248;149.138;2023-07-20T08:53:41;3.23;;;0.60;;
41532;SDS011;27262;-35.248;149.138;2023-07-20T08:56:13;5.93;;;0.90;;
41532;SDS011;27262;-35.248;149.138;2023-07-20T08:58:44;1.58;;;0.40;;
41532;SDS011;27262;-35.248;149.138;2023-07-20T09:01:16;6.63;;;0.70;;
41532;SDS011;27262;-35.248;149.138;2023-07-20T09:03:48;2.23;;;0.30;;
41532;SDS011;27262;-35.248;149.138;2023-07-20T09:06:19;4.55;;;0.75;;
41532;SDS011;27262;-35.248;149.138;2023-07-20T09:08:50;6.65;;;0.70;;
41532;SDS011;27262;-35.248;149.138;2023-07-20T09:11:20;6.70;;;0.77;;
41532;SDS011;27262;-35.248;149.138;2023-07-20T09:14:04;3.88;;;0.60;;
41532;SDS011;27262;-35.248;149.138;2023-07-20T09:16:48;3.45;;;0.40;;
41532;SDS011;27262;-35.248;149.138;2023-07-20T09:19:20;1.47;;;0.50;;
41532;SDS011;27262;-35.248;149.138;2023-07-20T09:21:51;2.55;;;0.63;;
41532;SDS011;27262;-35.248;149.138;2023-07-20T09:24:22;3.42;;;0.60;;
41532;SDS011;27262;-35.248;149.138;2023-07-20T09:26:52;2.40;;;0.40;;
41532;SDS011;27262;-35.248;149.138;2023-07-20T09:29:23;2.03;;;0.30;;
41532;SDS011;27262;-35.248;149.138;2023-07-20T09:32:00;4.78;;;0.63;;
41532;SDS011;27262;-35.248;149.138;2023-07-20T09:34:31;2.22;;;0.60;;
41532;SDS011;27262;-35.248;149.138;2023-07-20T09:37:06;0.90;;;0.40;;
41532;SDS011;27262;-35.248;149.138;2023-07-20T09:39:44;1.73;;;0.40;;
41532;SDS011;27262;-35.248;149.138;2023-07-20T09:42:18;1.30;;;0.55;;
41532;SDS011;27262;-35.248;149.138;2023-07-20T09:44:53;0.80;;;0.40;;
41532;SDS011;27262;-35.248;149.138;2023-07-20T09:47:23;2.35;;;0.30;;
41532;SDS011;27262;-35.248;149.138;2023-07-20T09:49:59;1.70;;;0.60;;
41532;SDS011;27262;-35.248;149.138;2023-07-20T09:52:32;0.95;;;0.50;;
41532;SDS011;27262;-35.248;149.138;2023-07-20T09:55:10;0.73;;;0.45;;
41532;SDS011;27262;-35.248;149.138;2023-07-20T09:57:42;0.47;;;0.40;;
41532;SDS011;27262;-35.248;149.138;2023-07-20T10:00:12;0.75;;;0.45;;
41532;SDS011;27262;-35.248;149.138;2023-07-20T10:02:47;0.38;;;0.30;;
41532;SDS011;27262;-35.248;149.138;2023-07-20T10:05:20;0.63;;;0.30;;
41532;SDS011;27262;-35.248;149.138;2023-07-20T10:07:51;0.40;;;0.40;;
41532;SDS011;27262;-35.248;149.138;2023-07-20T10:10:25;0.82;;;0.35;;
41532;SDS011;27262;-35.248;149.138;2023-07-20T10:12:57;1.13;;;0.50;;
41532;SDS011;27262;-35.248;149.138;2023-07-20T10:20:43;1.35;;;0.40;;
41532;SDS011;27262;-35.248;149.138;2023-07-20T10:23:18;0.63;;;0.40;;
41532;SDS011;27262;-35.248;149.138;2023-07-20T10:25:49;1.33;;;0.25;;
41532;SDS011;27262;-35.248;149.138;2023-07-20T10:28:20;0.88;;;0.45;;
41532;SDS011;27262;-35.248;149.138;2023-07-20T10:30:51;2.95;;;0.30;;
41532;SDS011;27262;-35.248;149.138;2023-07-20T10:33:22;0.95;;;0.40;;
41532;SDS011;27262;-35.248;149.138;2023-07-20T10:35:54;2.65;;;0.50;;
41532;SDS011;27262;-35.248;149.138;2023-07-20T10:38:41;3.15;;;0.50;;
41532;SDS011;27262;-35.248;149.138;2023-07-20T10:41:22;1.73;;;0.50;;
41532;SDS011;27262;-35.248;149.138;2023-07-20T10:44:01;0.47;;;0.40;;
41532;SDS011;27262;-35.248;149.138;2023-07-20T10:49:14;0.57;;;0.30;;
41532;SDS011;27262;-35.248;149.138;2023-07-20T10:51:46;0.65;;;0.40;;
41532;SDS011;27262;-35.248;149.138;2023-07-20T10:56:48;0.82;;;0.55;;
41532;SDS011;27262;-35.248;149.138;2023-07-20T10:59:20;0.88;;;0.38;;
41532;SDS011;27262;-35.248;149.138;2023-07-20T11:02:11;1.48;;;0.47;;
41532;SDS011;27262;-35.248;149.138;2023-07-20T11:04:42;2.40;;;0.40;;
41532;SDS011;27262;-35.248;149.138;2023-07-20T11:07:17;0.50;;;0.30;;
41532;SDS011;27262;-35.248;149.138;2023-07-20T11:10:13;1.40;;;0.30;;
41532;SDS011;27262;-35.248;149.138;2023-07-20T11:18:27;0.45;;;0.40;;
41532;SDS011;27262;-35.248;149.138;2023-07-20T11:20:59;0.50;;;0.50;;
41532;SDS011;27262;-35.248;149.138;2023-07-20T11:23:30;0.90;;;0.47;;
41532;SDS011;27262;-35.248;149.138;2023-07-20T11:26:02;0.93;;;0.40;;
41532;SDS011;27262;-35.248;149.138;2023-07-20T11:28:33;1.08;;;0.60;;
41532;SDS011;27262;-35.248;149.138;2023-07-20T11:31:04;0.30;;;0.30;;
41532;SDS011;27262;-35.248;149.138;2023-07-20T11:33:35;2.13;;;0.40;;
41532;SDS011;27262;-35.248;149.138;2023-07-20T11:36:07;0.93;;;0.50;;
41532;SDS011;27262;-35.248;149.138;2023-07-20T11:38:41;0.40;;;0.30;;
41532;SDS011;27262;-35.248;149.138;2023-07-20T11:41:12;0.43;;;0.40;;
41532;SDS011;27262;-35.248;149.138;2023-07-20T11:43:43;0.80;;;0.38;;
41532;SDS011;27262;-35.248;149.138;2023-07-20T11:46:16;0.63;;;0.30;;
41532;SDS011;27262;-35.248;149.138;2023-07-20T11:48:47;0.90;;;0.50;;
41532;SDS011;27262;-35.248;149.138;2023-07-20T11:51:18;0.20;;;0.20;;
41532;SDS011;27262;-35.248;149.138;2023-07-20T11:53:49;0.30;;;0.30;;
41532;SDS011;27262;-35.248;149.138;2023-07-20T11:56:19;0.57;;;0.32;;
41532;SDS011;27262;-35.248;149.138;2023-07-20T11:58:50;0.40;;;0.38;;
41532;SDS011;27262;-35.248;149.138;2023-07-20T12:01:33;0.52;;;0.20;;
41532;SDS011;27262;-35.248;149.138;2023-07-20T12:04:04;0.70;;;0.40;;
41532;SDS011;27262;-35.248;149.138;2023-07-20T12:06:35;0.63;;;0.40;;
41532;SDS011;27262;-35.248;149.138;2023-07-20T12:09:06;0.50;;;0.20;;
41532;SDS011;27262;-35.248;149.138;2023-07-20T12:11:48;0.43;;;0.30;;
41532;SDS011;27262;-35.248;149.138;2023-07-20T12:14:19;0.52;;;0.28;;
41532;SDS011;27262;-35.248;149.138;2023-07-20T12:16:52;0.30;;;0.30;;
41532;SDS011;27262;-35.248;149.138;2023-07-20T12:19:24;0.38;;;0.30;;
41532;SDS011;27262;-35.248;149.138;2023-07-20T12:21:57;0.93;;;0.40;;
41532;SDS011;27262;-35.248;149.138;2023-07-20T12:24:28;0.30;;;0.30;;
41532;SDS011;27262;-35.248;149.138;2023-07-20T12:26:58;0.32;;;0.20;;
41532;SDS011;27262;-35.248;149.138;2023-07-20T12:29:29;0.28;;;0.28;;
41532;SDS011;27262;-35.248;149.138;2023-07-20T12:32:04;0.50;;;0.30;;
41532;SDS011;27262;-35.248;149.138;2023-07-20T12:34:35;0.98;;;0.35;;
41532;SDS011;27262;-35.248;149.138;2023-07-20T12:37:07;0.25;;;0.20;;
41532;SDS011;27262;-35.248;149.138;2023-07-20T12:39:38;0.38;;;0.38;;
41532;SDS011;27262;-35.248;149.138;2023-07-20T12:42:11;0.22;;;0.20;;
41532;SDS011;27262;-35.248;149.138;2023-07-20T12:44:44;0.25;;;0.20;;
41532;SDS011;27262;-35.248;149.138;2023-07-20T12:47:14;0.40;;;0.20;;
41532;SDS011;27262;-35.248;149.138;2023-07-20T12:49:45;0.20;;;0.20;;
41532;SDS011;27262;-35.248;149.138;2023-07-20T12:52:16;0.20;;;0.20;;
41532;SDS011;27262;-35.248;149.138;2023-07-20T12:54:47;0.20;;;0.20;;
41532;SDS011;27262;-35.248;149.138;2023-07-20T12:57:17;0.90;;;0.30;;
41532;SDS011;27262;-35.248;149.138;2023-07-20T12:59:48;0.98;;;0.20;;
41532;SDS011;27262;-35.248;149.138;2023-07-20T13:02:19;9.18;;;0.70;;
41532;SDS011;27262;-35.248;149.138;2023-07-20T13:04:49;0.65;;;0.40;;
41532;SDS011;27262;-35.248;149.138;2023-07-20T13:07:22;0.98;;;0.40;;
41532;SDS011;27262;-35.248;149.138;2023-07-20T13:10:05;0.30;;;0.22;;
41532;SDS011;27262;-35.248;149.138;2023-07-20T13:12:37;0.20;;;0.20;;
41532;SDS011;27262;-35.248;149.138;2023-07-20T13:15:08;1.17;;;0.30;;
41532;SDS011;27262;-35.248;149.138;2023-07-20T13:17:39;0.85;;;0.30;;
41532;SDS011;27262;-35.248;149.138;2023-07-20T13:20:10;1.20;;;0.28;;
41532;SDS011;27262;-35.248;149.138;2023-07-20T13:22:40;2.00;;;0.30;;
41532;SDS011;27262;-35.248;149.138;2023-07-20T13:25:11;0.65;;;0.30;;
41532;SDS011;27262;-35.248;149.138;2023-07-20T13:27:41;0.95;;;0.20;;
41532;SDS011;27262;-35.248;149.138;2023-07-20T13:30:12;0.85;;;0.30;;
41532;SDS011;27262;-35.248;149.138;2023-07-20T13:32:46;0.20;;;0.20;;
41532;SDS011;27262;-35.248;149.138;2023-07-20T13:35:17;1.27;;;0.30;;
41532;SDS011;27262;-35.248;149.138;2023-07-20T13:37:48;0.30;;;0.20;;
41532;SDS011;27262;-35.248;149.138;2023-07-20T13:40:18;1.65;;;0.20;;
41532;SDS011;27262;-35.248;149.138;2023-07-20T13:42:51;0.75;;;0.30;;
41532;SDS011;27262;-35.248;149.138;2023-07-20T13:45:21;0.20;;;0.20;;
41532;SDS011;27262;-35.248;149.138;2023-07-20T13:47:52;2.60;;;0.28;;
41532;SDS011;27262;-35.248;149.138;2023-07-20T13:50:22;0.20;;;0.20;;
41532;SDS011;27262;-35.248;149.138;2023-07-20T13:53:06;0.90;;;0.40;;
41532;SDS011;27262;-35.248;149.138;2023-07-20T13:55:39;0.30;;;0.20;;
41532;SDS011;27262;-35.248;149.138;2023-07-20T13:58:12;0.55;;;0.28;;
41532;SDS011;27262;-35.248;149.138;2023-07-20T14:00:43;1.05;;;0.55;;
41532;SDS011;27262;-35.248;149.138;2023-07-20T14:03:14;0.30;;;0.30;;
41532;SDS011;27262;-35.248;149.138;2023-07-20T14:05:46;0.30;;;0.30;;
41532;SDS011;27262;-35.248;149.138;2023-07-20T14:08:23;0.52;;;0.30;;
41532;SDS011;27262;-35.248;149.138;2023-07-20T14:10:58;0.38;;;0.30;;
41532;SDS011;27262;-35.248;149.138;2023-07-20T14:13:31;1.33;;;0.28;;
41532;SDS011;27262;-35.248;149.138;2023-07-20T14:16:13;0.50;;;0.20;;
41532;SDS011;27262;-35.248;149.138;2023-07-20T14:18:46;0.68;;;0.30;;
41532;SDS011;27262;-35.248;149.138;2023-07-20T14:21:18;0.20;;;0.20;;
41532;SDS011;27262;-35.248;149.138;2023-07-20T14:23:51;0.22;;;0.20;;
41532;SDS011;27262;-35.248;149.138;2023-07-20T14:26:22;0.30;;;0.30;;
41532;SDS011;27262;-35.248;149.138;2023-07-20T14:28:53;0.40;;;0.20;;
41532;SDS011;27262;-35.248;149.138;2023-07-20T14:31:25;0.90;;;0.25;;
41532;SDS011;27262;-35.248;149.138;2023-07-20T14:33:55;0.68;;;0.20;;
41532;SDS011;27262;-35.248;149.138;2023-07-20T14:36:26;0.50;;;0.30;;
41532;SDS011;27262;-35.248;149.138;2023-07-20T14:39:00;0.50;;;0.25;;
41532;SDS011;27262;-35.248;149.138;2023-07-20T14:41:30;0.20;;;0.20;;
41532;SDS011;27262;-35.248;149.138;2023-07-20T14:44:00;0.50;;;0.30;;
41532;SDS011;27262;-35.248;149.138;2023-07-20T14:46:31;0.30;;;0.20;;
41532;SDS011;27262;-35.248;149.138;2023-07-20T14:49:02;1.13;;;0.20;;
41532;SDS011;27262;-35.248;149.138;2023-07-20T14:51:32;0.40;;;0.20;;
41532;SDS011;27262;-35.248;149.138;2023-07-20T14:54:06;0.60;;;0.30;;
41532;SDS011;27262;-35.248;149.138;2023-07-20T14:56:37;1.85;;;0.25;;
41532;SDS011;27262;-35.248;149.138;2023-07-20T14:59:13;1.05;;;0.20;;
41532;SDS011;27262;-35.248;149.138;2023-07-20T15:01:43;0.30;;;0.30;;